Time;durP1;ratioP1;P1;durP2;ratioP2;P2;SDS_P1;SDS_P2;PMS_P1;PMS_P2;Temp;Humidity;BMP_temperature;BMP_pressure;BME280_temperature;BME280_humidity;BME280_pressure;Samples;Min_cycle;Max_cycle;Signal;HPM_P1;HPM_P2
2023/10/13 00:00:57;;;;;;;3.30;2.00;;;25.50;39.00;;;;;;5130824;27;45194;-67
2023/10/13 00:03:25;;;;;;;2.70;1.80;;;25.50;38.40;;;;;;5130889;27;45191;-67
2023/10/13 00:05:52;;;;;;;1.95;1.80;;;25.50;38.50;;;;;;5130671;27;47041;-67
2023/10/13 00:08:20;;;;;;;2.20;1.95;;;25.50;38.50;;;;;;5129997;27;45296;-67
2023/10/13 00:10:47;;;;;;;2.58;2.03;;;25.50;38.60;;;;;;5130623;27;45277;-67
2023/10/13 00:13:15;;;;;;;2.80;1.95;;;25.50;38.60;;;;;;5130741;27;45272;-67
2023/10/13 00:15:55;;;;;;;2.33;1.73;;;25.50;38.60;;;;;;5130405;27;45457;-67
2023/10/13 00:18:26;;;;;;;1.98;1.58;;;25.40;38.60;;;;;;5130317;27;45268;-67
2023/10/13 00:20:56;;;;;;;2.20;2.00;;;25.40;38.60;;;;;;5130596;27;45292;-67
2023/10/13 00:23:26;;;;;;;1.40;1.30;;;25.40;38.70;;;;;;5130636;27;45548;-67
2023/10/13 00:25:58;;;;;;;2.72;1.92;;;25.40;38.60;;;;;;5130138;27;45540;-67
2023/10/13 00:28:26;;;;;;;2.55;1.88;;;25.40;38.70;;;;;;5130344;27;45252;-67
2023/10/13 00:30:59;;;;;;;3.13;1.75;;;25.40;38.70;;;;;;5130449;27;45414;-67
2023/10/13 00:33:28;;;;;;;3.08;1.80;;;25.30;38.60;;;;;;5129669;27;45162;-67
2023/10/13 00:35:57;;;;;;;3.03;1.77;;;25.40;38.70;;;;;;5129631;27;46408;-67
2023/10/13 00:38:24;;;;;;;1.80;1.70;;;25.40;38.80;;;;;;5130069;27;45107;-67
2023/10/13 00:40:53;;;;;;;2.00;1.75;;;25.40;38.70;;;;;;5130193;27;45305;-67
2023/10/13 00:43:32;;;;;;;3.70;1.80;;;25.30;38.70;;;;;;5130270;27;45484;-67
2023/10/13 00:46:07;;;;;;;2.05;1.80;;;25.30;38.60;;;;;;5129706;27;46236;-68
2023/10/13 00:48:42;;;;;;;2.58;1.85;;;25.30;38.70;;;;;;5129918;27;45130;-67
2023/10/13 00:51:16;;;;;;;3.42;1.83;;;25.30;38.80;;;;;;5130025;27;45191;-67
2023/10/13 00:53:44;;;;;;;2.33;1.55;;;25.30;38.80;;;;;;5130241;27;45420;-67
2023/10/13 00:56:18;;;;;;;2.10;1.60;;;25.30;38.80;;;;;;5129652;27;46465;-67
2023/10/13 00:58:46;;;;;;;1.98;1.45;;;25.30;38.80;;;;;;5129498;27;45152;-67
2023/10/13 01:03:55;;;;;;;2.17;1.38;;;25.30;38.90;;;;;;5128076;27;45519;-67
2023/10/13 01:06:25;;;;;;;2.92;1.33;;;25.30;39.00;;;;;;5129615;27;46557;-67
2023/10/13 01:08:58;;;;;;;2.13;1.75;;;25.20;38.90;;;;;;5129526;27;45444;-67
2023/10/13 01:11:23;;;;;;;2.42;1.67;;;25.20;39.00;;;;;;5129555;27;45381;-67
2023/10/13 01:13:53;;;;;;;3.20;1.90;;;25.20;38.90;;;;;;5129811;27;45526;-67
2023/10/13 01:16:23;;;;;;;2.40;1.80;;;25.20;39.00;;;;;;5129249;27;46829;-67
2023/10/13 01:18:50;;;;;;;1.83;1.65;;;25.20;39.00;;;;;;5129497;27;45309;-67
2023/10/13 01:21:20;;;;;;;1.70;1.48;;;25.20;39.10;;;;;;5129492;27;45380;-67
2023/10/13 01:23:48;;;;;;;1.80;1.55;;;25.20;39.10;;;;;;5129708;27;45592;-67
2023/10/13 01:26:21;;;;;;;3.38;1.92;;;25.20;39.10;;;;;;5129249;27;45408;-68
2023/10/13 01:28:50;;;;;;;2.47;1.77;;;25.10;39.10;;;;;;5129521;27;45196;-67
2023/10/13 01:31:26;;;;;;;2.00;1.67;;;25.10;39.10;;;;;;5128575;27;45330;-67
2023/10/13 01:33:54;;;;;;;2.30;1.85;;;25.10;39.20;;;;;;5128854;27;45208;-67
2023/10/13 01:36:22;;;;;;;4.47;1.52;;;25.10;39.10;;;;;;5128826;27;45426;-67
2023/10/13 01:38:50;;;;;;;1.73;1.60;;;25.10;39.20;;;;;;5129117;27;45292;-67
2023/10/13 01:41:16;;;;;;;3.08;1.90;;;25.10;39.20;;;;;;5129275;27;45354;-67
2023/10/13 01:43:42;;;;;;;1.67;1.48;;;25.00;39.20;;;;;;5129238;27;45432;-67
2023/10/13 01:46:13;;;;;;;2.95;1.77;;;25.00;39.20;;;;;;5129098;27;46281;-67
2023/10/13 01:48:39;;;;;;;1.83;1.40;;;25.00;39.20;;;;;;5128728;27;45305;-67
2023/10/13 01:51:09;;;;;;;2.33;1.90;;;25.00;39.90;;;;;;5129176;27;45247;-67
2023/10/13 01:53:36;;;;;;;3.80;1.92;;;25.00;39.30;;;;;;5129264;27;45328;-67
2023/10/13 01:56:10;;;;;;;1.70;1.60;;;25.00;39.30;;;;;;5128680;27;48420;-67
2023/10/13 01:58:37;;;;;;;2.05;1.85;;;25.00;39.30;;;;;;5128723;27;45305;-67
2023/10/13 02:01:04;;;;;;;2.42;1.60;;;25.00;39.30;;;;;;5128872;27;45309;-67
2023/10/13 02:03:30;;;;;;;1.58;1.35;;;25.00;39.30;;;;;;5128976;27;45358;-67
2023/10/13 02:06:04;;;;;;;2.22;1.30;;;25.00;39.30;;;;;;5128688;27;45276;-67
2023/10/13 02:08:30;;;;;;;1.80;1.52;;;24.90;39.30;;;;;;5128623;27;45239;-67
2023/10/13 02:10:57;;;;;;;2.65;1.70;;;24.90;39.40;;;;;;5128672;27;45276;-67
2023/10/13 02:13:25;;;;;;;2.13;1.50;;;24.90;39.40;;;;;;5128836;27;45339;-67
2023/10/13 02:15:56;;;;;;;2.85;1.60;;;24.90;39.40;;;;;;5128411;27;46689;-67
2023/10/13 02:18:26;;;;;;;2.00;1.60;;;24.90;39.40;;;;;;5128322;27;45962;-67
2023/10/13 02:20:55;;;;;;;2.15;1.45;;;24.90;39.50;;;;;;5128802;27;45206;-67
2023/10/13 02:23:21;;;;;;;2.50;1.63;;;24.90;39.50;;;;;;5128578;27;45525;-67
2023/10/13 02:25:52;;;;;;;2.92;1.80;;;24.90;39.60;;;;;;5127418;27;45935;-67
2023/10/13 02:28:28;;;;;;;1.50;1.40;;;24.80;39.60;;;;;;5127561;27;45315;-67
2023/10/13 02:30:57;;;;;;;2.40;2.17;;;24.80;39.60;;;;;;5127894;27;45324;-67
2023/10/13 02:33:29;;;;;;;2.53;2.00;;;24.80;39.60;;;;;;5128369;27;45185;-67
2023/10/13 02:35:56;;;;;;;1.90;1.70;;;24.80;39.60;;;;;;5128075;27;45462;-67
2023/10/13 02:38:27;;;;;;;1.92;1.80;;;24.80;39.70;;;;;;5128192;27;45332;-67
2023/10/13 02:40:54;;;;;;;2.60;1.60;;;24.70;39.60;;;;;;5128447;27;45403;-67
2023/10/13 02:43:22;;;;;;;1.60;1.50;;;24.70;39.60;;;;;;5128124;27;45313;-67
2023/10/13 02:45:59;;;;;;;1.98;1.73;;;24.70;39.70;;;;;;5127928;27;46551;-67
2023/10/13 02:48:26;;;;;;;2.80;2.35;;;24.70;39.70;;;;;;5128122;27;44682;-67
2023/10/13 02:51:01;;;;;;;2.38;1.55;;;24.70;39.80;;;;;;5127976;27;45303;-67
2023/10/13 02:53:28;;;;;;;1.65;1.45;;;24.70;39.80;;;;;;5128219;27;45472;-68
2023/10/13 02:55:56;;;;;;;1.52;1.42;;;24.70;39.80;;;;;;5127834;27;45383;-67
2023/10/13 02:58:22;;;;;;;2.03;1.50;;;24.60;39.90;;;;;;5127116;27;45315;-67
2023/10/13 03:00:49;;;;;;;1.75;1.65;;;24.60;39.80;;;;;;5128050;27;45304;-67
2023/10/13 03:03:18;;;;;;;2.05;1.63;;;24.60;39.90;;;;;;5128043;27;45462;-67
2023/10/13 03:05:46;;;;;;;2.80;1.55;;;24.60;40.00;;;;;;5127765;27;47265;-67
2023/10/13 03:08:17;;;;;;;1.90;1.55;;;24.60;40.00;;;;;;5127720;27;45943;-67
2023/10/13 03:10:49;;;;;;;3.00;1.83;;;24.50;40.00;;;;;;5127922;27;45327;-67
2023/10/13 03:13:15;;;;;;;1.88;1.63;;;24.50;40.00;;;;;;5127961;27;45130;-67
2023/10/13 03:15:47;;;;;;;2.05;1.70;;;24.50;40.00;;;;;;5127710;27;45233;-67
2023/10/13 03:18:18;;;;;;;2.35;1.77;;;24.50;40.00;;;;;;5127822;27;45279;-67
2023/10/13 03:20:50;;;;;;;2.35;1.60;;;24.50;40.00;;;;;;5127738;27;45314;-67
2023/10/13 03:23:16;;;;;;;2.85;1.70;;;24.50;40.10;;;;;;5127969;27;45175;-67
2023/10/13 03:25:43;;;;;;;3.22;1.73;;;24.50;40.10;;;;;;5127929;27;46380;-67
2023/10/13 03:28:13;;;;;;;2.67;1.58;;;24.40;40.10;;;;;;5127441;27;45303;-66
2023/10/13 03:30:41;;;;;;;1.77;1.60;;;24.40;40.10;;;;;;5126887;27;45270;-67
2023/10/13 03:33:11;;;;;;;1.90;1.55;;;24.40;40.80;;;;;;5127271;27;45222;-67
2023/10/13 03:35:41;;;;;;;2.55;1.60;;;24.40;40.20;;;;;;5127448;27;47264;-67
2023/10/13 03:38:17;;;;;;;3.60;1.88;;;24.40;40.20;;;;;;5127506;27;45221;-67
2023/10/13 03:40:56;;;;;;;1.83;1.70;;;24.40;40.20;;;;;;5127353;27;45235;-67
2023/10/13 03:43:23;;;;;;;2.90;1.63;;;24.30;40.20;;;;;;5127582;27;45290;-67
2023/10/13 03:45:52;;;;;;;2.58;1.60;;;24.30;40.20;;;;;;5127050;27;46370;-67
2023/10/13 03:48:28;;;;;;;3.38;1.80;;;24.30;40.30;;;;;;5127525;27;45389;-67
2023/10/13 03:51:02;;;;;;;3.80;1.52;;;24.30;40.30;;;;;;5127176;27;45208;-67
2023/10/13 03:53:34;;;;;;;3.15;1.60;;;24.30;40.30;;;;;;5127585;27;45508;-68
2023/10/13 03:56:12;;;;;;;1.73;1.60;;;24.30;40.40;;;;;;5127087;27;46472;-67
2023/10/13 03:58:42;;;;;;;5.15;1.42;;;24.20;40.30;;;;;;5127369;27;45195;-67
2023/10/13 04:01:12;;;;;;;2.78;1.80;;;24.20;40.90;;;;;;5127428;27;45381;-67
2023/10/13 04:03:42;;;;;;;1.85;1.70;;;24.20;40.30;;;;;;5127385;27;45458;-67
2023/10/13 04:06:16;;;;;;;1.70;1.58;;;24.20;40.30;;;;;;5126954;27;46398;-67
2023/10/13 04:09:51;;;;;;;2.78;1.90;;;24.20;40.30;;;;;;5127035;27;45313;-67
2023/10/13 04:12:19;;;;;;;2.08;1.70;;;24.20;40.40;;;;;;5130493;27;45331;-67
2023/10/13 04:17:45;;;;;;;1.88;1.35;;;24.10;40.50;;;;;;5130172;27;45555;-67
2023/10/13 04:20:26;;;;;;;1.60;1.38;;;24.10;40.50;;;;;;5130289;27;45330;-67
2023/10/13 04:23:19;;;;;;;1.88;1.50;;;24.10;40.50;;;;;;5130678;27;45317;-67
2023/10/13 04:28:50;;;;;;;3.65;1.50;;;24.10;40.60;;;;;;5127344;27;45197;-67
2023/10/13 04:31:25;;;;;;;1.77;1.60;;;24.10;40.70;;;;;;5129651;27;45300;-67
2023/10/13 04:34:02;;;;;;;2.83;1.30;;;24.10;40.60;;;;;;5129709;27;45206;-67
2023/10/13 04:36:44;;;;;;;1.67;1.58;;;24.00;40.60;;;;;;5130110;27;45508;-67
2023/10/13 04:39:16;;;;;;;2.42;1.48;;;24.00;40.70;;;;;;5129613;27;46545;-67
2023/10/13 04:41:57;;;;;;;2.22;1.70;;;24.00;40.70;;;;;;5129539;27;45318;-67
2023/10/13 04:44:48;;;;;;;2.00;1.40;;;24.00;40.70;;;;;;5129754;27;45185;-67
2023/10/13 04:47:21;;;;;;;3.17;1.70;;;24.00;40.70;;;;;;5129929;27;45544;-67
2023/10/13 04:49:51;;;;;;;1.42;1.33;;;24.00;40.80;;;;;;5129463;27;47651;-67
2023/10/13 04:55:09;;;;;;;1.60;1.50;;;23.90;40.80;;;;;;5126718;27;45525;-67
2023/10/13 04:57:47;;;;;;;1.55;1.40;;;23.90;40.80;;;;;;5129566;27;45549;-66
2023/10/13 05:06:10;;;;;;;1.88;1.67;;;23.80;40.80;;;;;;5102047;27;45268;-67
2023/10/13 05:44:47;;;;;;;2.10;1.80;;;23.60;41.00;;;;;;5125787;27;45401;-68
2023/10/13 05:47:46;;;;;;;1.80;1.38;;;23.60;41.00;;;;;;5128724;27;45303;-68
2023/10/13 05:50:49;;;;;;;2.45;1.80;;;23.60;41.10;;;;;;5128563;27;45218;-67
2023/10/13 06:28:55;;;;;;;2.65;1.58;;;23.30;41.60;;;;;;5125098;27;45259;-68
2023/10/13 06:31:22;;;;;;;3.42;1.90;;;23.30;41.70;;;;;;5127383;27;45335;-68
2023/10/13 06:33:49;;;;;;;2.20;1.63;;;23.30;41.80;;;;;;5127277;27;45314;-68
2023/10/13 06:36:17;;;;;;;1.80;1.70;;;23.30;41.80;;;;;;5128189;27;45260;-68
2023/10/13 06:38:44;;;;;;;2.15;1.90;;;23.30;41.80;;;;;;5127754;27;46626;-68
2023/10/13 06:41:19;;;;;;;2.30;1.75;;;23.30;41.80;;;;;;5128003;27;45373;-68
2023/10/13 06:43:58;;;;;;;4.63;1.70;;;23.30;41.80;;;;;;5128106;27;45372;-68
2023/10/13 06:46:28;;;;;;;3.25;2.15;;;23.30;41.80;;;;;;5128147;27;45433;-68
2023/10/13 06:48:55;;;;;;;2.35;1.95;;;23.30;41.80;;;;;;5127657;27;46580;-68
2023/10/13 06:51:26;;;;;;;2.47;1.88;;;23.30;41.80;;;;;;5127688;27;45335;-68
2023/10/13 06:53:56;;;;;;;3.58;1.92;;;23.30;41.70;;;;;;5127781;27;45317;-68
2023/10/13 06:56:27;;;;;;;3.10;1.58;;;23.30;41.80;;;;;;5127791;27;45337;-68
2023/10/13 06:58:59;;;;;;;2.42;1.70;;;23.30;41.80;;;;;;5127145;27;45786;-68
2023/10/13 07:01:26;;;;;;;2.53;1.75;;;23.30;41.80;;;;;;5127359;27;45289;-68
2023/10/13 07:03:53;;;;;;;3.38;1.90;;;23.30;41.70;;;;;;5127839;27;45287;-68
2023/10/13 07:06:20;;;;;;;2.88;1.73;;;23.30;41.70;;;;;;5127929;27;45282;-67
2023/10/13 07:08:52;;;;;;;2.35;1.80;;;23.30;41.70;;;;;;5127208;27;45722;-68
2023/10/13 07:11:32;;;;;;;2.00;1.77;;;23.30;41.70;;;;;;5127107;27;45205;-68
2023/10/13 07:14:09;;;;;;;1.70;1.60;;;23.30;41.70;;;;;;5127606;27;45349;-67
2023/10/13 07:16:38;;;;;;;2.80;1.63;;;23.30;41.70;;;;;;5127477;27;45283;-67
2023/10/13 07:19:06;;;;;;;2.30;1.42;;;23.30;41.60;;;;;;5127159;27;47420;-68
2023/10/13 07:21:33;;;;;;;2.10;1.70;;;23.30;41.70;;;;;;5127234;27;45613;-68
2023/10/13 07:24:08;;;;;;;3.20;2.13;;;23.30;41.70;;;;;;5127419;27;44783;-68
2023/10/13 07:26:37;;;;;;;2.10;1.55;;;23.30;41.60;;;;;;5127358;27;45484;-68
2023/10/13 07:29:08;;;;;;;2.55;1.67;;;23.30;41.70;;;;;;5126983;27;46730;-68
2023/10/13 07:31:34;;;;;;;2.35;1.98;;;23.30;41.70;;;;;;5126759;27;45497;-68
2023/10/13 07:34:09;;;;;;;2.78;1.58;;;23.30;41.70;;;;;;5127148;27;45334;-68
2023/10/13 07:36:40;;;;;;;5.75;1.70;;;23.30;41.70;;;;;;5127768;27;45334;-68
2023/10/13 07:39:21;;;;;;;1.92;1.50;;;23.30;41.60;;;;;;5127226;27;45503;-68
2023/10/13 07:41:54;;;;;;;3.00;1.58;;;23.30;41.60;;;;;;5126993;27;45195;-68
2023/10/13 07:44:24;;;;;;;2.03;1.65;;;23.30;41.60;;;;;;5129558;27;45344;-68
2023/10/13 07:46:58;;;;;;;2.05;1.80;;;23.30;41.60;;;;;;5130953;27;45224;-68
2023/10/13 07:49:30;;;;;;;4.43;1.48;;;23.30;41.60;;;;;;5130502;27;45182;-67
2023/10/13 07:52:00;;;;;;;2.00;1.80;;;23.30;42.20;;;;;;5130670;27;45319;-68
2023/10/13 07:54:29;;;;;;;3.17;1.75;;;23.30;41.60;;;;;;5130768;27;45186;-68
2023/10/13 07:56:56;;;;;;;3.58;1.95;;;23.30;41.70;;;;;;5126640;27;45393;-69
2023/10/13 07:59:23;;;;;;;6.65;2.72;;;23.30;41.80;;;;;;5133732;27;47098;-71
2023/10/13 08:02:12;;;;;;;4.03;2.10;;;23.30;42.30;;;;;;5130179;27;45342;-67
2023/10/13 08:04:38;;;;;;;5.07;2.45;;;23.30;42.80;;;;;;5118998;27;45388;-66
2023/10/13 08:07:13;;;;;;;8.80;2.17;;;23.30;43.00;;;;;;5121442;27;45413;-68
2023/10/13 08:09:43;;;;;;;6.57;2.20;;;23.30;42.50;;;;;;5122246;27;46917;-69
2023/10/13 08:12:12;;;;;;;10.90;1.95;;;23.40;42.50;;;;;;5126222;27;45241;-69
2023/10/13 08:14:41;;;;;;;3.92;2.20;;;23.40;41.70;;;;;;5113292;27;45406;-68
2023/10/13 08:17:12;;;;;;;7.75;2.17;;;23.50;41.70;;;;;;5131600;27;45293;-70
2023/10/13 08:19:44;;;;;;;8.77;2.85;;;23.60;41.40;;;;;;5120218;27;47583;-70
2023/10/13 08:22:35;;;;;;;3.13;1.77;;;23.60;40.80;;;;;;5126510;27;45269;-70
2023/10/13 08:25:20;;;;;;;7.13;2.20;;;23.70;41.40;;;;;;5119004;27;45418;-69
2023/10/13 08:28:04;;;;;;;8.35;2.17;;;23.80;41.30;;;;;;5131195;27;45483;-68
2023/10/13 08:30:42;;;;;;;7.88;2.08;;;23.80;40.20;;;;;;5114218;27;45386;-71
2023/10/13 08:33:16;;;;;;;5.00;2.50;;;23.80;39.80;;;;;;5107001;27;45359;-69
2023/10/13 08:35:54;;;;;;;9.57;2.65;;;24.00;39.80;;;;;;5111497;27;45366;-70
2023/10/13 08:38:28;;;;;;;3.85;1.95;;;24.00;40.00;;;;;;5120138;27;45475;-69
2023/10/13 08:43:50;;;;;;;4.03;2.75;;;24.20;38.30;;;;;;5108372;27;45724;-69
2023/10/13 08:46:28;;;;;;;8.20;2.40;;;24.30;40.00;;;;;;5121349;27;45276;-68
2023/10/13 08:49:04;;;;;;;9.27;2.08;;;24.40;38.70;;;;;;5124712;27;45260;-69
2023/10/13 08:51:44;;;;;;;4.35;2.05;;;24.50;38.30;;;;;;5117015;27;47576;-67
2023/10/13 08:54:20;;;;;;;5.38;2.28;;;24.60;38.00;;;;;;5127323;27;45428;-67
2023/10/13 08:56:55;;;;;;;6.32;2.35;;;24.70;38.60;;;;;;5117201;27;45408;-67
2023/10/13 08:59:38;;;;;;;6.13;2.30;;;24.70;38.60;;;;;;5129745;27;45114;-69
2023/10/13 09:02:15;;;;;;;7.70;2.15;;;24.70;38.20;;;;;;5110835;27;46289;-69
2023/10/13 09:04:44;;;;;;;4.75;2.30;;;24.80;38.10;;;;;;5122139;27;45273;-69
2023/10/13 09:07:15;;;;;;;4.43;1.67;;;24.80;38.10;;;;;;5114565;27;45357;-69
2023/10/13 09:10:11;;;;;;;4.13;2.17;;;24.80;38.40;;;;;;5113706;27;45403;-67
2023/10/13 09:12:42;;;;;;;6.50;2.20;;;24.90;37.80;;;;;;5118316;27;45285;-67
2023/10/13 09:15:19;;;;;;;4.57;2.30;;;24.90;38.30;;;;;;5123752;27;44902;-67
2023/10/13 09:17:52;;;;;;;8.07;2.50;;;24.90;38.30;;;;;;5114335;27;45360;-67
2023/10/13 09:20:32;;;;;;;4.82;2.50;;;25.00;38.10;;;;;;5125046;27;45276;-69
2023/10/13 09:23:07;;;;;;;7.68;1.90;;;25.00;37.90;;;;;;5115295;27;46520;-66
2023/10/13 09:25:35;;;;;;;4.88;2.25;;;25.00;38.10;;;;;;5124692;27;45307;-70
2023/10/13 09:28:10;;;;;;;9.68;2.25;;;25.00;38.00;;;;;;5115919;27;45306;-66
2023/10/13 09:30:44;;;;;;;5.63;2.03;;;25.00;38.10;;;;;;5122655;27;45432;-70
2023/10/13 09:33:15;;;;;;;4.93;2.22;;;25.10;38.40;;;;;;5108580;27;48557;-67
2023/10/13 09:35:48;;;;;;;4.88;2.40;;;25.20;38.60;;;;;;5117251;27;45301;-70
2023/10/13 09:38:15;;;;;;;6.18;2.22;;;25.30;38.50;;;;;;5119374;27;45413;-69
2023/10/13 09:40:46;;;;;;;4.55;2.65;;;25.40;38.40;;;;;;5114174;27;45370;-71
2023/10/13 09:43:15;;;;;;;7.97;2.83;;;25.60;39.00;;;;;;5120463;27;47533;-67
2023/10/13 09:45:43;;;;;;;13.27;2.58;;;25.70;38.70;;;;;;5124898;27;45256;-70
2023/10/13 09:48:16;;;;;;;6.28;2.00;;;25.80;38.40;;;;;;5116159;27;45468;-71
2023/10/13 09:50:44;;;;;;;11.13;2.60;;;25.90;37.70;;;;;;5123680;27;45265;-71
2023/10/13 09:53:10;;;;;;;14.43;3.22;;;26.00;38.30;;;;;;5113347;27;45458;-68
2023/10/13 09:55:39;;;;;;;13.35;3.38;;;26.20;37.30;;;;;;5119373;27;45383;-70
2023/10/13 09:58:10;;;;;;;17.95;3.72;;;26.30;37.40;;;;;;5121566;27;45334;-69
2023/10/13 10:00:57;;;;;;;7.50;2.03;;;26.50;36.70;;;;;;5120246;27;45480;-65
2023/10/13 10:03:41;;;;;;;23.45;3.83;;;26.50;36.50;;;;;;5115081;27;46302;-71
2023/10/13 10:06:14;;;;;;;21.55;3.40;;;26.60;36.50;;;;;;5116716;27;45354;-67
2023/10/13 10:08:48;;;;;;;18.58;3.00;;;26.70;36.20;;;;;;5126059;27;45275;-69
2023/10/13 10:11:40;;;;;;;7.40;2.45;;;26.70;36.50;;;;;;5125221;27;45295;-71
2023/10/13 10:14:10;;;;;;;8.68;2.80;;;26.70;36.40;;;;;;5127240;27;46524;-70
2023/10/13 10:16:46;;;;;;;6.18;2.33;;;26.70;36.50;;;;;;5126765;27;45317;-69
2023/10/13 10:19:13;;;;;;;5.63;2.42;;;26.80;35.80;;;;;;5125058;27;45298;-69
2023/10/13 10:21:41;;;;;;;6.80;2.42;;;26.80;36.30;;;;;;5128816;27;45294;-68
2023/10/13 10:24:29;;;;;;;8.70;2.20;;;26.80;35.90;;;;;;5128372;27;47420;-67
2023/10/13 10:26:56;;;;;;;10.68;2.45;;;26.80;35.70;;;;;;5128454;27;45344;-67
2023/10/13 10:29:23;;;;;;;6.43;1.67;;;26.90;35.90;;;;;;5128212;27;45422;-67
2023/10/13 10:31:52;;;;;;;3.88;2.10;;;26.90;35.90;;;;;;5127524;27;45321;-69
2023/10/13 10:34:19;;;;;;;4.47;2.38;;;27.00;35.50;;;;;;5107029;27;46383;-68
2023/10/13 10:36:48;;;;;;;5.47;2.63;;;27.10;35.60;;;;;;5107343;27;45396;-67
2023/10/13 10:39:17;;;;;;;4.35;2.22;;;27.20;35.70;;;;;;5107286;27;45402;-74
2023/10/13 10:41:51;;;;;;;6.85;2.53;;;27.30;35.80;;;;;;5106697;27;45530;-74
2023/10/13 10:44:19;;;;;;;8.13;2.78;;;27.30;35.70;;;;;;5106715;27;45426;-73
2023/10/13 10:46:56;;;;;;;5.97;2.67;;;27.40;35.80;;;;;;5107506;27;45320;-71
2023/10/13 10:49:29;;;;;;;4.75;2.72;;;27.40;36.00;;;;;;5107275;27;45358;-75
2023/10/13 10:52:00;;;;;;;6.70;2.85;;;27.50;35.70;;;;;;5108200;27;45232;-74
2023/10/13 10:54:31;;;;;;;4.97;2.58;;;27.50;35.60;;;;;;5106926;27;45367;-75
2023/10/13 10:57:10;;;;;;;6.65;2.90;;;27.50;35.70;;;;;;5106574;27;45367;-75
2023/10/13 10:59:38;;;;;;;5.75;2.50;;;27.60;35.80;;;;;;5107005;27;45265;-75
2023/10/13 11:02:06;;;;;;;4.32;2.70;;;27.70;35.90;;;;;;5107771;27;45636;-75
2023/10/13 11:04:40;;;;;;;7.63;3.00;;;27.70;35.90;;;;;;5107129;27;47504;-75
2023/10/13 11:07:08;;;;;;;4.10;3.08;;;27.70;35.80;;;;;;5106553;27;45321;-74
2023/10/13 11:09:37;;;;;;;4.90;2.88;;;27.80;35.80;;;;;;5107192;27;45260;-75
2023/10/13 11:12:23;;;;;;;3.08;2.45;;;27.90;35.80;;;;;;5107371;27;45610;-75
2023/10/13 11:15:00;;;;;;;5.10;2.70;;;27.90;35.70;;;;;;5106947;27;46726;-75
2023/10/13 11:17:38;;;;;;;4.00;2.60;;;28.00;35.70;;;;;;5107063;27;45352;-75
2023/10/13 11:20:17;;;;;;;6.63;2.75;;;28.00;35.60;;;;;;5110655;27;45449;-75
2023/10/13 11:22:47;;;;;;;6.35;2.60;;;28.10;35.50;;;;;;5110925;27;45589;-75
2023/10/13 11:25:22;;;;;;;2.80;2.50;;;28.20;35.50;;;;;;5119662;27;45520;-75
2023/10/13 11:27:59;;;;;;;7.90;3.20;;;28.30;35.60;;;;;;5130468;27;45473;-75
2023/10/13 11:30:29;;;;;;;5.88;2.78;;;28.30;35.50;;;;;;5123350;27;45577;-73
2023/10/13 11:33:00;;;;;;;3.90;2.42;;;28.40;35.40;;;;;;5126404;27;45537;-73
2023/10/13 11:35:48;;;;;;;3.55;2.75;;;28.50;35.40;;;;;;5130815;27;45461;-74
2023/10/13 11:38:25;;;;;;;4.03;2.45;;;28.60;35.00;;;;;;5130869;27;45383;-74
2023/10/13 11:41:06;;;;;;;2.85;2.05;;;28.80;33.60;;;;;;5130288;27;45285;-74
2023/10/13 11:43:36;;;;;;;6.70;2.70;;;28.90;32.90;;;;;;5130770;27;45280;-75
2023/10/13 11:46:13;;;;;;;4.30;2.53;;;29.00;33.50;;;;;;5130369;27;45448;-75
2023/10/13 11:48:41;;;;;;;3.75;2.00;;;29.10;32.50;;;;;;5128010;27;45689;-72
2023/10/13 11:51:17;;;;;;;8.18;2.42;;;29.30;32.30;;;;;;5131004;27;45244;-74
2023/10/13 11:53:44;;;;;;;3.08;2.20;;;29.30;31.90;;;;;;5128916;27;45513;-74
2023/10/13 11:56:10;;;;;;;3.30;1.90;;;29.40;31.70;;;;;;5127833;27;46523;-72
2023/10/13 11:58:37;;;;;;;4.72;2.47;;;29.50;31.50;;;;;;5130877;27;45393;-72
2023/10/13 12:01:20;;;;;;;4.03;2.20;;;29.50;32.30;;;;;;5130569;27;45372;-72
2023/10/13 12:06:46;;;;;;;3.45;2.10;;;29.50;32.30;;;;;;5130899;27;45404;-73
2023/10/13 12:09:20;;;;;;;5.53;2.58;;;29.50;32.50;;;;;;5130482;27;45314;-72
2023/10/13 12:11:47;;;;;;;3.72;2.22;;;29.50;32.70;;;;;;5130688;27;45260;-73
2023/10/13 12:14:19;;;;;;;4.15;2.47;;;29.60;32.70;;;;;;5130735;27;45572;-72
2023/10/13 12:16:48;;;;;;;3.78;2.60;;;29.60;32.60;;;;;;5130082;27;46478;-72
2023/10/13 12:19:16;;;;;;;6.70;2.72;;;29.60;32.60;;;;;;5129182;27;45333;-72
2023/10/13 12:21:47;;;;;;;3.85;2.30;;;29.70;32.90;;;;;;5130169;27;45311;-72
2023/10/13 12:24:22;;;;;;;3.13;2.50;;;29.70;32.70;;;;;;5130284;27;45293;-74
2023/10/13 12:26:55;;;;;;;2.88;2.13;;;29.80;32.80;;;;;;5129014;27;46402;-72
2023/10/13 12:29:28;;;;;;;3.00;2.15;;;29.80;32.80;;;;;;5129403;27;45311;-74
2023/10/13 12:32:07;;;;;;;3.72;2.35;;;29.80;32.90;;;;;;5128185;27;45232;-72
2023/10/13 12:34:57;;;;;;;4.82;2.28;;;29.90;32.80;;;;;;5122648;27;45303;-73
2023/10/13 12:37:49;;;;;;;4.55;2.28;;;30.10;32.80;;;;;;5130170;27;46620;-73
2023/10/13 12:51:20;;;;;;;6.63;2.30;;;30.50;29.10;;;;;;5130292;27;45328;-74
2023/10/13 12:53:49;;;;;;;2.83;2.08;;;30.50;29.20;;;;;;5130248;27;45252;-74
2023/10/13 12:56:16;;;;;;;5.45;2.67;;;30.70;28.70;;;;;;5130114;27;45519;-74
2023/10/13 12:58:51;;;;;;;7.35;2.50;;;30.70;28.20;;;;;;5130369;27;45311;-74
2023/10/13 13:01:20;;;;;;;4.82;2.15;;;30.70;28.80;;;;;;5133045;27;45275;-74
2023/10/13 13:03:47;;;;;;;3.28;1.98;;;30.80;28.10;;;;;;5132667;27;45426;-74
2023/10/13 13:06:17;;;;;;;4.38;2.20;;;30.80;28.20;;;;;;5131743;27;45472;-74
2023/10/13 13:08:44;;;;;;;5.65;2.85;;;30.80;27.80;;;;;;5130207;27;45420;-75
2023/10/13 13:11:12;;;;;;;8.23;2.65;;;30.90;28.10;;;;;;5130397;27;45286;-73
2023/10/13 13:13:39;;;;;;;3.47;2.30;;;31.00;27.70;;;;;;5130655;27;45299;-74
2023/10/13 13:16:07;;;;;;;5.95;2.05;;;31.00;27.60;;;;;;5130003;27;45389;-74
2023/10/13 13:18:34;;;;;;;5.88;2.30;;;31.20;27.60;;;;;;5129893;27;46368;-74
2023/10/13 13:21:06;;;;;;;7.57;2.22;;;31.20;27.30;;;;;;5129506;27;45361;-74
2023/10/13 13:23:34;;;;;;;3.38;2.10;;;31.20;27.40;;;;;;5130575;27;45406;-74
2023/10/13 13:26:01;;;;;;;4.93;2.25;;;31.20;27.30;;;;;;5130185;27;45391;-73
2023/10/13 13:28:29;;;;;;;4.30;2.33;;;31.30;27.40;;;;;;5129776;27;46395;-73
2023/10/13 13:30:56;;;;;;;16.35;2.30;;;31.30;27.20;;;;;;5130437;27;45420;-74
2023/10/13 13:33:25;;;;;;;4.80;2.28;;;31.50;27.30;;;;;;5130375;27;45385;-74
2023/10/13 13:35:55;;;;;;;6.20;2.55;;;31.50;27.10;;;;;;5130341;27;45409;-74
2023/10/13 13:38:27;;;;;;;3.78;2.05;;;31.50;26.70;;;;;;5129899;27;46399;-73
2023/10/13 13:40:54;;;;;;;5.68;2.05;;;31.70;27.40;;;;;;5128856;27;45325;-73
2023/10/13 13:43:37;;;;;;;6.68;1.98;;;31.70;26.50;;;;;;5130365;27;45416;-72
2023/10/13 13:46:09;;;;;;;3.55;2.00;;;31.70;26.40;;;;;;5130508;27;45520;-72
2023/10/13 13:48:36;;;;;;;3.83;2.40;;;31.80;26.40;;;;;;5129945;27;46277;-71
2023/10/13 13:51:05;;;;;;;8.13;2.10;;;31.70;26.60;;;;;;5129333;27;45175;-73
2023/10/13 13:53:34;;;;;;;4.10;2.10;;;31.70;26.10;;;;;;5131499;27;45396;-72
2023/10/13 13:56:02;;;;;;;5.60;2.10;;;31.70;25.90;;;;;;5130349;27;45569;-71
2023/10/13 13:58:29;;;;;;;4.10;1.90;;;31.80;26.00;;;;;;5129577;27;46611;-73
2023/10/13 14:01:01;;;;;;;4.05;2.13;;;31.80;25.90;;;;;;5129846;27;45264;-73
2023/10/13 14:03:32;;;;;;;3.40;1.80;;;31.90;25.80;;;;;;5129911;27;45190;-73
2023/10/13 14:05:59;;;;;;;4.70;2.10;;;31.90;25.60;;;;;;5130077;27;45477;-73
2023/10/13 14:08:27;;;;;;;4.35;2.15;;;31.90;25.50;;;;;;5129601;27;45303;-73
2023/10/13 14:11:21;;;;;;;4.63;2.10;;;31.90;25.70;;;;;;5129694;27;45299;-73
2023/10/13 14:13:48;;;;;;;4.30;1.90;;;31.90;25.70;;;;;;5129646;27;45275;-73
2023/10/13 14:16:17;;;;;;;4.72;2.03;;;31.80;25.40;;;;;;5130027;27;45321;-73
2023/10/13 14:18:46;;;;;;;4.97;2.08;;;31.80;25.40;;;;;;5129494;27;46233;-73
2023/10/13 14:21:16;;;;;;;5.47;1.90;;;31.80;25.20;;;;;;5129051;27;45134;-72
2023/10/13 14:23:46;;;;;;;3.83;2.20;;;31.80;25.30;;;;;;5129345;27;45307;-73
2023/10/13 14:26:13;;;;;;;5.47;1.95;;;31.70;25.50;;;;;;5129294;27;45321;-73
2023/10/13 14:28:50;;;;;;;2.65;1.77;;;31.60;25.60;;;;;;5129035;27;45459;-73
2023/10/13 14:31:18;;;;;;;7.13;1.85;;;31.50;25.70;;;;;;5129126;27;45271;-72
2023/10/13 14:33:47;;;;;;;3.67;2.00;;;31.30;25.80;;;;;;5129368;27;45412;-73
2023/10/13 14:36:17;;;;;;;4.88;1.75;;;31.00;26.10;;;;;;5133738;27;45394;-72
2023/10/13 14:38:47;;;;;;;3.72;2.03;;;30.80;26.30;;;;;;5133987;27;45420;-73
2023/10/13 14:41:14;;;;;;;4.88;2.10;;;30.60;26.10;;;;;;5133879;27;45347;-73
2023/10/13 14:43:47;;;;;;;2.33;1.90;;;30.40;26.20;;;;;;5129481;27;45221;-72
2023/10/13 14:46:14;;;;;;;3.90;1.80;;;30.20;26.40;;;;;;5129046;27;45519;-73
2023/10/13 14:48:41;;;;;;;4.82;2.17;;;30.10;26.70;;;;;;5128436;27;45404;-72
2023/10/13 14:51:12;;;;;;;6.00;2.20;;;30.00;27.00;;;;;;5128125;27;45337;-72
2023/10/13 14:53:43;;;;;;;6.88;2.42;;;29.90;27.10;;;;;;5128046;27;45248;-74
2023/10/13 14:56:11;;;;;;;5.60;2.35;;;29.90;27.10;;;;;;5129550;27;45489;-74